Google Maps JavaScript API Example
Pilot Flight Report # 93810 Submitted by : AST154 on 2020-03-27
Date: 2020-03-27Aircraft: Boeing 737-800
Flight No.: AST0495Distance (Nm): 264.24
Departure: KIAH - G Bush Intercontinental/HoustDestination: KMSY - Armstrong New Orleans International
 TimeFuelWeightSpeeds  
Out (Taxi)1937Z21089 lbs129649 lbs Flight RulesIFR
Off (Takeoff)1954Z 128379 lbs149 ktsFlight Level33000
On (Landing)2049Z 119934 lbs147 ktsVSTD-383 ft/min
In (Ramp)2054Z11081 lbs119643 lbs ZFW108561 lbs
Flight0.90  -  0:558448 lbs  Pax0
Block1.28  -  1:1710008 lbs  Cargo0
Departure WeatherKIAH 271931Z 21711KT 19SM FEW039 SCT538 29/19 A2985
Destination WeatherKMSY 272054Z 22011KT 19SM SCT538 29/19 A2985
Flight CommentsGreat flight...